Time;durP1;ratioP1;P1;durP2;ratioP2;P2;SDS_P1;SDS_P2;PMS_P1;PMS_P2;Temp;Humidity;BMP_temperature;BMP_pressure;BME280_temperature;BME280_humidity;BME280_pressure;Samples;Min_cycle;Max_cycle;Signal;HPM_P1;HPM_P2
2023/07/31 00:00:05;;;;;;;9.45;4.00;;;;;;;;;;4348499;32;318030;-81
2023/07/31 00:02:32;;;;;;;7.53;3.42;;;;;;;;;;4353762;32;317121;-81
2023/07/31 00:04:59;;;;;;;6.97;3.78;;;;;;;;;;4343174;32;317052;-81
2023/07/31 00:07:27;;;;;;;6.70;4.25;;;;;;;;;;4352322;32;317073;-81
2023/07/31 00:09:54;;;;;;;4.87;3.47;;;;;;;;;;4342681;32;317018;-81
2023/07/31 00:12:21;;;;;;;8.02;4.30;;;;;;;;;;4353985;32;316634;-81
2023/07/31 00:14:47;;;;;;;8.27;4.20;;;;;;;;;;4343238;32;317324;-81
2023/07/31 00:17:14;;;;;;;8.05;4.20;;;;;;;;;;4340167;32;317517;-82
2023/07/31 00:19:41;;;;;;;12.23;4.78;;;;;;;;;;4329151;32;316411;-83
2023/07/31 00:22:07;;;;;;;11.02;4.18;;;;;;;;;;4337537;32;317715;-83
2023/07/31 00:24:35;;;;;;;7.32;5.05;;;;;;;;;;4338520;32;318357;-84
2023/07/31 00:27:02;;;;;;;8.07;5.00;;;;;;;;;;4327227;32;345225;-85
2023/07/31 00:29:29;;;;;;;8.50;4.78;;;;;;;;;;4338386;32;316552;-81
2023/07/31 00:31:56;;;;;;;9.65;4.60;;;;;;;;;;4330740;32;317888;-86
2023/07/31 00:34:22;;;;;;;6.95;4.40;;;;;;;;;;4340783;32;316687;-81
2023/07/31 00:36:49;;;;;;;7.30;5.07;;;;;;;;;;4331900;32;316842;-81
2023/07/31 00:39:16;;;;;;;7.55;4.68;;;;;;;;;;4341507;32;316755;-83
2023/07/31 00:41:44;;;;;;;9.40;4.35;;;;;;;;;;4331635;32;317564;-85
2023/07/31 00:44:11;;;;;;;10.57;5.97;;;;;;;;;;4341449;32;317109;-82
2023/07/31 00:46:38;;;;;;;9.90;6.28;;;;;;;;;;4341164;32;318661;-82
2023/07/31 00:49:05;;;;;;;16.73;5.82;;;;;;;;;;4331051;32;317433;-80
2023/07/31 00:51:32;;;;;;;7.50;5.22;;;;;;;;;;4341599;32;317664;-80
2023/07/31 00:54:01;;;;;;;7.62;4.80;;;;;;;;;;4331279;32;316573;-80
2023/07/31 00:56:29;;;;;;;7.10;4.25;;;;;;;;;;4340374;32;317300;-80
2023/07/31 00:58:57;;;;;;;8.27;4.43;;;;;;;;;;4329545;32;343905;-80
2023/07/31 01:01:24;;;;;;;6.75;4.82;;;;;;;;;;4341476;32;317319;-81
2023/07/31 01:03:53;;;;;;;7.28;4.37;;;;;;;;;;4331617;32;317054;-80
2023/07/31 01:06:30;;;;;;;7.55;4.55;;;;;;;;;;4355904;32;316696;-80
2023/07/31 01:09:03;;;;;;;8.95;4.45;;;;;;;;;;4346286;32;317603;-80
2023/07/31 01:11:32;;;;;;;7.70;4.62;;;;;;;;;;4354895;32;317043;-80
2023/07/31 01:14:01;;;;;;;9.73;4.53;;;;;;;;;;4330645;32;316680;-80
2023/07/31 01:16:27;;;;;;;7.97;3.90;;;;;;;;;;4339728;32;317129;-80
2023/07/31 01:18:54;;;;;;;6.03;4.57;;;;;;;;;;4331534;32;321613;-80
2023/07/31 01:21:38;;;;;;;7.90;4.60;;;;;;;;;;4337523;32;316591;-80
2023/07/31 01:24:23;;;;;;;9.23;4.72;;;;;;;;;;4336921;32;317359;-80
2023/07/31 01:26:58;;;;;;;8.85;4.37;;;;;;;;;;4331304;32;326353;-80
2023/07/31 01:29:33;;;;;;;6.18;4.30;;;;;;;;;;4340942;32;317067;-80
2023/07/31 01:32:03;;;;;;;6.20;4.25;;;;;;;;;;4330590;32;317177;-80
2023/07/31 01:34:31;;;;;;;6.05;4.47;;;;;;;;;;4344205;32;316748;-80
2023/07/31 01:36:58;;;;;;;8.85;4.47;;;;;;;;;;4336579;32;339249;-80
2023/07/31 01:39:25;;;;;;;8.95;4.22;;;;;;;;;;4346908;32;317084;-80
2023/07/31 01:41:52;;;;;;;5.35;4.07;;;;;;;;;;4336596;32;316965;-79
2023/07/31 01:44:20;;;;;;;6.22;4.10;;;;;;;;;;4342773;32;317006;-79
2023/07/31 01:46:46;;;;;;;5.20;4.13;;;;;;;;;;4329794;32;354177;-80
2023/07/31 01:49:13;;;;;;;4.95;4.18;;;;;;;;;;4340303;32;317154;-80
2023/07/31 01:51:40;;;;;;;4.22;3.70;;;;;;;;;;4340042;32;317474;-80
2023/07/31 01:54:08;;;;;;;11.73;5.32;;;;;;;;;;4328794;32;416514;-80
2023/07/31 01:56:34;;;;;;;9.88;4.18;;;;;;;;;;4353743;32;317947;-80
2023/07/31 01:59:01;;;;;;;5.47;4.62;;;;;;;;;;4345265;32;317341;-80
2023/07/31 02:01:29;;;;;;;11.40;4.22;;;;;;;;;;4354959;32;317289;-80
2023/07/31 02:03:57;;;;;;;4.45;3.83;;;;;;;;;;4344744;32;317948;-80
2023/07/31 02:06:24;;;;;;;9.48;4.37;;;;;;;;;;4354309;32;316559;-80
2023/07/31 02:08:51;;;;;;;6.07;4.35;;;;;;;;;;4343742;32;317208;-80
2023/07/31 02:11:17;;;;;;;5.62;4.20;;;;;;;;;;4354786;32;317233;-80
2023/07/31 02:13:44;;;;;;;9.48;5.18;;;;;;;;;;4344857;32;317374;-80
2023/07/31 02:16:11;;;;;;;5.70;4.40;;;;;;;;;;4354658;32;317397;-80
2023/07/31 02:18:39;;;;;;;4.07;3.67;;;;;;;;;;4353385;32;316991;-80
2023/07/31 02:21:06;;;;;;;5.32;4.30;;;;;;;;;;4341024;32;418077;-80
2023/07/31 02:23:32;;;;;;;4.75;4.05;;;;;;;;;;4354158;32;317081;-80
2023/07/31 02:25:59;;;;;;;8.38;3.83;;;;;;;;;;4344873;32;317502;-80
2023/07/31 02:28:26;;;;;;;4.50;3.62;;;;;;;;;;4353391;32;317279;-80
2023/07/31 02:30:53;;;;;;;6.03;4.00;;;;;;;;;;4342854;32;348960;-80
2023/07/31 02:33:19;;;;;;;5.85;3.65;;;;;;;;;;4354616;32;317309;-80
2023/07/31 02:35:47;;;;;;;7.93;4.47;;;;;;;;;;4344933;32;317100;-80
2023/07/31 02:38:14;;;;;;;10.13;4.30;;;;;;;;;;4360749;32;206967;-80
2023/07/31 02:40:42;;;;;;;7.57;5.28;;;;;;;;;;4350417;32;318359;-81
2023/07/31 02:43:08;;;;;;;5.35;3.70;;;;;;;;;;4354250;32;317494;-79
2023/07/31 02:45:35;;;;;;;5.15;3.95;;;;;;;;;;4354527;32;316534;-80
2023/07/31 02:48:02;;;;;;;6.97;3.45;;;;;;;;;;4344628;32;316807;-80
2023/07/31 02:50:28;;;;;;;6.87;3.55;;;;;;;;;;4360810;32;206985;-80
2023/07/31 02:52:56;;;;;;;4.87;3.92;;;;;;;;;;4344155;32;317224;-80
2023/07/31 02:55:23;;;;;;;7.50;3.55;;;;;;;;;;4354251;32;317365;-80
2023/07/31 02:57:51;;;;;;;5.10;4.10;;;;;;;;;;4344230;32;316539;-80
2023/07/31 03:00:18;;;;;;;6.32;4.00;;;;;;;;;;4354217;32;317131;-80
2023/07/31 03:02:45;;;;;;;10.38;4.40;;;;;;;;;;4344473;32;317101;-80
2023/07/31 03:05:12;;;;;;;5.82;3.95;;;;;;;;;;4352245;32;318378;-80
2023/07/31 03:07:38;;;;;;;4.15;3.67;;;;;;;;;;4336484;32;317574;-80
2023/07/31 03:10:08;;;;;;;4.95;4.12;;;;;;;;;;4340462;32;417541;-79
2023/07/31 03:12:35;;;;;;;5.97;4.22;;;;;;;;;;4353583;32;317604;-80
2023/07/31 03:15:02;;;;;;;5.78;3.80;;;;;;;;;;4344058;32;317424;-80
2023/07/31 03:17:28;;;;;;;10.65;4.45;;;;;;;;;;4353418;32;317188;-80
2023/07/31 03:19:55;;;;;;;5.90;4.05;;;;;;;;;;4342771;32;317656;-80
2023/07/31 03:22:22;;;;;;;4.60;4.07;;;;;;;;;;4353488;32;317041;-80
2023/07/31 03:24:48;;;;;;;6.87;3.70;;;;;;;;;;4343473;32;317241;-79
2023/07/31 03:27:16;;;;;;;7.18;4.32;;;;;;;;;;4353129;32;317413;-79
2023/07/31 03:29:43;;;;;;;6.55;4.72;;;;;;;;;;4343654;32;317498;-79
2023/07/31 03:32:10;;;;;;;5.85;4.30;;;;;;;;;;4352292;32;316593;-79
2023/07/31 03:34:37;;;;;;;7.72;4.78;;;;;;;;;;4352531;32;317447;-79
2023/07/31 03:37:04;;;;;;;5.93;4.00;;;;;;;;;;4339390;32;418230;-80
2023/07/31 03:39:31;;;;;;;12.27;5.12;;;;;;;;;;4352354;32;317417;-79
2023/07/31 03:41:58;;;;;;;6.95;4.60;;;;;;;;;;4342261;32;318377;-80
2023/07/31 03:44:26;;;;;;;9.30;4.95;;;;;;;;;;4352031;32;316828;-80
2023/07/31 03:46:53;;;;;;;8.35;4.45;;;;;;;;;;4342604;32;317180;-80
2023/07/31 03:49:20;;;;;;;7.75;5.07;;;;;;;;;;4353440;32;318067;-80
2023/07/31 03:51:47;;;;;;;8.35;5.43;;;;;;;;;;4343572;32;317395;-80
2023/07/31 03:54:13;;;;;;;8.50;5.07;;;;;;;;;;4353015;32;317629;-80
2023/07/31 03:56:40;;;;;;;7.97;4.75;;;;;;;;;;4343279;32;317318;-82
2023/07/31 03:59:07;;;;;;;4.82;4.20;;;;;;;;;;4352039;32;317185;-81
2023/07/31 04:01:35;;;;;;;11.65;5.20;;;;;;;;;;4353167;32;316848;-79
2023/07/31 04:04:02;;;;;;;6.75;5.50;;;;;;;;;;4343110;32;318783;-80
2023/07/31 04:06:28;;;;;;;6.87;5.22;;;;;;;;;;4352607;32;316596;-80
2023/07/31 04:08:55;;;;;;;15.10;5.97;;;;;;;;;;4342074;32;317504;-80
2023/07/31 04:11:22;;;;;;;7.47;6.30;;;;;;;;;;4353118;32;318147;-79
2023/07/31 04:13:48;;;;;;;12.98;6.20;;;;;;;;;;4343269;32;316895;-79
2023/07/31 04:16:15;;;;;;;8.02;5.65;;;;;;;;;;4342834;32;318292;-80
2023/07/31 04:18:43;;;;;;;6.87;5.25;;;;;;;;;;4326433;32;317367;-80
2023/07/31 04:21:10;;;;;;;6.80;5.10;;;;;;;;;;4337231;32;317322;-79
2023/07/31 04:23:37;;;;;;;4.97;4.47;;;;;;;;;;4338093;32;316912;-80
2023/07/31 04:26:03;;;;;;;5.78;5.07;;;;;;;;;;4328746;32;316888;-85
2023/07/31 04:28:31;;;;;;;5.95;4.85;;;;;;;;;;4337247;32;317194;-89
2023/07/31 04:30:58;;;;;;;8.80;6.40;;;;;;;;;;4326310;32;352838;-81
2023/07/31 04:33:25;;;;;;;6.10;5.45;;;;;;;;;;4338149;32;317379;-81
2023/07/31 04:35:54;;;;;;;10.20;7.03;;;;;;;;;;4328488;32;317744;-80
2023/07/31 04:38:21;;;;;;;10.55;6.57;;;;;;;;;;4338431;32;318942;-79
2023/07/31 04:40:48;;;;;;;7.18;6.35;;;;;;;;;;4328388;32;318263;-86
2023/07/31 04:43:15;;;;;;;9.10;7.95;;;;;;;;;;4337995;32;317548;-82
2023/07/31 04:45:44;;;;;;;20.90;7.30;;;;;;;;;;4328378;32;317233;-80
2023/07/31 04:48:10;;;;;;;10.07;7.10;;;;;;;;;;4337921;32;318433;-80
2023/07/31 04:50:37;;;;;;;10.50;8.30;;;;;;;;;;4336613;32;318293;-81
2023/07/31 04:53:05;;;;;;;10.18;7.20;;;;;;;;;;4328462;32;317927;-80
2023/07/31 04:55:32;;;;;;;12.98;7.40;;;;;;;;;;4349352;32;318623;-80
2023/07/31 04:57:59;;;;;;;10.45;6.68;;;;;;;;;;4342286;32;317806;-81
2023/07/31 05:00:26;;;;;;;10.80;7.93;;;;;;;;;;4351801;32;318333;-80
2023/07/31 05:02:53;;;;;;;9.93;7.43;;;;;;;;;;4341984;32;347722;-80
2023/07/31 05:05:19;;;;;;;11.35;8.93;;;;;;;;;;4352384;32;317683;-80
2023/07/31 05:07:46;;;;;;;10.07;9.00;;;;;;;;;;4341865;32;318577;-80
2023/07/31 05:10:14;;;;;;;13.05;8.73;;;;;;;;;;4351948;32;318405;-80
2023/07/31 05:12:41;;;;;;;10.32;8.55;;;;;;;;;;4331717;32;318473;-80
2023/07/31 05:15:09;;;;;;;10.30;8.80;;;;;;;;;;4339750;32;318514;-80
2023/07/31 05:17:36;;;;;;;13.98;8.30;;;;;;;;;;4340497;32;358621;-80
2023/07/31 05:20:03;;;;;;;11.95;9.70;;;;;;;;;;4330797;32;317511;-81
2023/07/31 05:22:30;;;;;;;12.35;9.40;;;;;;;;;;4340648;32;317938;-80
2023/07/31 05:24:56;;;;;;;12.70;10.40;;;;;;;;;;4330654;32;318477;-82
2023/07/31 05:27:24;;;;;;;10.38;9.35;;;;;;;;;;4339371;32;318702;-80
2023/07/31 05:29:51;;;;;;;14.05;10.13;;;;;;;;;;4329460;32;317715;-80
2023/07/31 05:32:18;;;;;;;12.40;10.15;;;;;;;;;;4340429;32;319493;-80
2023/07/31 05:34:44;;;;;;;15.35;10.50;;;;;;;;;;4330361;32;319793;-81
2023/07/31 05:37:12;;;;;;;20.30;10.23;;;;;;;;;;4337953;32;319495;-85
2023/07/31 05:39:38;;;;;;;28.17;11.10;;;;;;;;;;4351222;32;319344;-86
2023/07/31 05:42:06;;;;;;;23.48;10.93;;;;;;;;;;4331187;32;418192;-81
2023/07/31 05:44:34;;;;;;;20.15;10.55;;;;;;;;;;4338470;32;319034;-80
2023/07/31 05:47:01;;;;;;;14.98;11.30;;;;;;;;;;4328475;32;318623;-81
2023/07/31 05:49:28;;;;;;;17.62;10.50;;;;;;;;;;4338899;32;344322;-86
2023/07/31 05:51:55;;;;;;;18.70;11.63;;;;;;;;;;4330069;32;318928;-86
2023/07/31 05:54:22;;;;;;;17.62;12.07;;;;;;;;;;4337096;32;319895;-90
2023/07/31 05:56:49;;;;;;;16.95;12.05;;;;;;;;;;4315438;32;319164;-87
2023/07/31 05:59:17;;;;;;;19.60;12.48;;;;;;;;;;4323593;32;319496;-88
2023/07/31 06:01:45;;;;;;;16.10;12.98;;;;;;;;;;4313687;32;318612;-87
2023/07/31 06:04:12;;;;;;;17.23;12.90;;;;;;;;;;4331149;32;319031;-88
2023/07/31 06:06:38;;;;;;;16.50;12.20;;;;;;;;;;4352894;32;318834;-87
2023/07/31 06:09:05;;;;;;;15.05;11.20;;;;;;;;;;4352232;32;421990;-88
2023/07/31 06:11:32;;;;;;;19.15;13.35;;;;;;;;;;4373610;32;317249;-88
2023/07/31 06:13:59;;;;;;;16.80;14.73;;;;;;;;;;4362029;32;318194;-85
2023/07/31 06:16:27;;;;;;;19.37;13.62;;;;;;;;;;4371972;32;318077;-86
2023/07/31 06:18:55;;;;;;;15.73;13.13;;;;;;;;;;4360619;32;318256;-87
2023/07/31 06:21:21;;;;;;;17.90;14.40;;;;;;;;;;4354438;32;318637;-86
2023/07/31 06:23:49;;;;;;;17.58;15.82;;;;;;;;;;4357500;32;319040;-86
2023/07/31 06:26:16;;;;;;;16.00;14.20;;;;;;;;;;4367967;32;319846;-86
2023/07/31 06:28:43;;;;;;;19.00;15.18;;;;;;;;;;4357312;32;319332;-87
2023/07/31 06:31:10;;;;;;;13.48;12.07;;;;;;;;;;4366121;32;319797;-84
2023/07/31 06:33:37;;;;;;;14.70;13.20;;;;;;;;;;4367539;32;318474;-88
2023/07/31 06:36:05;;;;;;;16.75;14.65;;;;;;;;;;4358546;32;319371;-88
2023/07/31 06:38:33;;;;;;;16.83;14.48;;;;;;;;;;4368840;32;319159;-88
2023/07/31 06:40:59;;;;;;;14.25;12.75;;;;;;;;;;4358366;32;319191;-88
2023/07/31 06:43:26;;;;;;;15.68;14.07;;;;;;;;;;4367750;32;352172;-88
2023/07/31 06:45:53;;;;;;;16.10;14.45;;;;;;;;;;4359100;32;319095;-88
2023/07/31 06:48:19;;;;;;;17.52;15.13;;;;;;;;;;4369029;32;319396;-88
2023/07/31 06:50:46;;;;;;;15.25;13.80;;;;;;;;;;4357381;32;344579;-88
2023/07/31 06:53:14;;;;;;;16.17;14.55;;;;;;;;;;4369079;32;318646;-89
2023/07/31 06:55:41;;;;;;;15.52;13.93;;;;;;;;;;4346794;32;319349;-88
2023/07/31 06:58:07;;;;;;;20.20;13.82;;;;;;;;;;4355260;32;319092;-89
2023/07/31 07:00:34;;;;;;;17.40;15.10;;;;;;;;;;4351604;32;318688;-90
2023/07/31 07:03:01;;;;;;;16.50;14.85;;;;;;;;;;4343631;32;318899;-88
2023/07/31 07:05:28;;;;;;;15.10;13.70;;;;;;;;;;4352373;32;319367;-87
2023/07/31 07:07:54;;;;;;;17.40;14.27;;;;;;;;;;4341854;32;318854;-89
2023/07/31 07:10:22;;;;;;;15.93;14.15;;;;;;;;;;4352728;32;319644;-92
2023/07/31 07:12:50;;;;;;;15.40;14.00;;;;;;;;;;4342074;32;325741;-89
2023/07/31 07:15:16;;;;;;;15.50;13.95;;;;;;;;;;4352484;32;318502;-88
2023/07/31 07:17:43;;;;;;;16.23;14.60;;;;;;;;;;4335522;32;319282;-91
2023/07/31 07:20:10;;;;;;;14.93;13.38;;;;;;;;;;4338904;32;319366;-89
2023/07/31 07:22:37;;;;;;;14.38;12.93;;;;;;;;;;4338566;32;318680;-87
2023/07/31 07:25:04;;;;;;;13.35;11.43;;;;;;;;;;4328581;32;319337;-89
2023/07/31 07:27:32;;;;;;;12.77;11.40;;;;;;;;;;4336343;32;332715;-90
2023/07/31 07:29:59;;;;;;;14.07;12.75;;;;;;;;;;4327674;32;319200;-87
2023/07/31 07:32:26;;;;;;;12.25;11.05;;;;;;;;;;4338802;32;319483;-86
2023/07/31 07:34:53;;;;;;;11.50;10.30;;;;;;;;;;4328578;32;319389;-84
2023/07/31 07:37:20;;;;;;;9.75;8.77;;;;;;;;;;4336283;32;319393;-84
2023/07/31 07:39:46;;;;;;;8.85;7.75;;;;;;;;;;4325228;32;316798;-84
2023/07/31 07:42:13;;;;;;;9.90;8.90;;;;;;;;;;4337915;32;317514;-85
2023/07/31 07:44:41;;;;;;;10.35;9.35;;;;;;;;;;4328823;32;317290;-87
2023/07/31 07:47:08;;;;;;;10.90;9.75;;;;;;;;;;4338326;32;318428;-94
2023/07/31 07:49:35;;;;;;;9.10;8.30;;;;;;;;;;4338021;32;318208;-88
2023/07/31 07:52:02;;;;;;;9.40;8.40;;;;;;;;;;4326710;32;350358;-83
2023/07/31 07:54:29;;;;;;;10.07;8.20;;;;;;;;;;4342205;32;316519;-83
2023/07/31 07:56:56;;;;;;;8.80;7.97;;;;;;;;;;4343533;32;318438;-83
2023/07/31 07:59:23;;;;;;;9.00;7.53;;;;;;;;;;4353007;32;317112;-87
2023/07/31 08:01:51;;;;;;;9.68;8.68;;;;;;;;;;4341916;32;316643;-92
2023/07/31 08:04:17;;;;;;;8.50;7.70;;;;;;;;;;4351273;32;316640;-84
2023/07/31 08:06:44;;;;;;;9.25;8.35;;;;;;;;;;4339720;32;317583;-85
2023/07/31 08:09:11;;;;;;;9.40;8.45;;;;;;;;;;4352892;32;316787;-87
2023/07/31 08:11:38;;;;;;;9.82;8.77;;;;;;;;;;4352505;32;317086;-88
2023/07/31 08:14:04;;;;;;;9.60;8.68;;;;;;;;;;4338817;32;416619;-83
2023/07/31 08:16:31;;;;;;;8.05;7.35;;;;;;;;;;4352936;32;316489;-85
2023/07/31 08:18:59;;;;;;;9.80;8.18;;;;;;;;;;4343384;32;317504;-84
2023/07/31 08:21:26;;;;;;;8.32;7.62;;;;;;;;;;4353040;32;317154;-86
2023/07/31 08:23:52;;;;;;;9.57;8.15;;;;;;;;;;4342464;32;317275;-90
2023/07/31 08:26:20;;;;;;;9.18;8.15;;;;;;;;;;4352244;32;317547;-83
2023/07/31 08:28:47;;;;;;;8.73;7.53;;;;;;;;;;4343118;32;317250;-83
2023/07/31 08:31:14;;;;;;;8.57;7.35;;;;;;;;;;4353212;32;316902;-87
2023/07/31 08:33:41;;;;;;;7.25;6.65;;;;;;;;;;4343087;32;317154;-84
2023/07/31 08:36:09;;;;;;;6.95;6.20;;;;;;;;;;4351498;32;316578;-89
2023/07/31 08:38:35;;;;;;;10.07;6.37;;;;;;;;;;4351666;32;316697;-82
2023/07/31 08:41:04;;;;;;;5.75;5.18;;;;;;;;;;4341934;32;325202;-82
2023/07/31 08:43:31;;;;;;;7.18;5.80;;;;;;;;;;4353000;32;316883;-85
2023/07/31 08:45:58;;;;;;;7.22;6.43;;;;;;;;;;4342052;32;317366;-84
2023/07/31 08:48:26;;;;;;;9.27;6.35;;;;;;;;;;4352780;32;317428;-83
2023/07/31 08:50:53;;;;;;;6.80;6.20;;;;;;;;;;4343090;32;317458;-87
2023/07/31 08:53:22;;;;;;;6.95;6.35;;;;;;;;;;4355661;32;317540;-85
2023/07/31 08:55:50;;;;;;;6.20;5.60;;;;;;;;;;4347036;32;317199;-87
2023/07/31 08:58:18;;;;;;;6.87;5.80;;;;;;;;;;4342272;32;316747;-91
2023/07/31 09:00:47;;;;;;;8.52;6.25;;;;;;;;;;4331499;32;317149;-90
2023/07/31 09:03:15;;;;;;;6.35;5.60;;;;;;;;;;4341178;32;316599;-92
2023/07/31 09:05:45;;;;;;;5.97;5.47;;;;;;;;;;4341576;32;316427;-92
2023/07/31 09:08:13;;;;;;;5.00;4.60;;;;;;;;;;4357707;32;316551;-92
2023/07/31 09:10:43;;;;;;;9.35;5.12;;;;;;;;;;4356737;32;326891;-90
2023/07/31 09:13:10;;;;;;;5.25;4.72;;;;;;;;;;4342966;32;416740;-91
2023/07/31 09:15:38;;;;;;;5.32;4.78;;;;;;;;;;4356099;32;316541;-89
2023/07/31 09:18:06;;;;;;;4.43;3.87;;;;;;;;;;4333750;32;417173;-88
2023/07/31 09:20:33;;;;;;;6.95;4.50;;;;;;;;;;4341140;32;317181;-87
2023/07/31 09:23:08;;;;;;;5.03;4.10;;;;;;;;;;4330571;32;326739;-88
2023/07/31 09:25:35;;;;;;;4.15;3.42;;;;;;;;;;4339865;32;316626;-89
2023/07/31 09:28:04;;;;;;;5.68;3.70;;;;;;;;;;4329962;32;317259;-90
2023/07/31 09:30:31;;;;;;;3.92;3.30;;;;;;;;;;4340948;32;318045;-91
2023/07/31 09:33:02;;;;;;;3.92;3.33;;;;;;;;;;4330793;32;317117;-88
2023/07/31 09:35:31;;;;;;;5.55;3.08;;;;;;;;;;4340302;32;316967;-85
2023/07/31 09:38:00;;;;;;;2.65;2.45;;;;;;;;;;4330188;32;317246;-87
2023/07/31 09:40:28;;;;;;;9.55;2.72;;;;;;;;;;4339340;32;317509;-86
2023/07/31 09:42:58;;;;;;;3.40;2.42;;;;;;;;;;4329462;32;317654;-83
2023/07/31 09:45:26;;;;;;;2.90;2.50;;;;;;;;;;4339204;32;317164;-83
2023/07/31 09:47:53;;;;;;;3.33;2.72;;;;;;;;;;4330318;32;317557;-84
2023/07/31 09:50:22;;;;;;;4.30;2.60;;;;;;;;;;4340112;32;316725;-80
2023/07/31 09:52:49;;;;;;;4.75;2.87;;;;;;;;;;4330960;32;316554;-81
2023/07/31 09:55:17;;;;;;;2.58;2.37;;;;;;;;;;4355244;32;317184;-86
2023/07/31 09:57:46;;;;;;;3.12;2.30;;;;;;;;;;4343710;32;318676;-81
2023/07/31 10:00:14;;;;;;;6.62;2.42;;;;;;;;;;4355090;32;317546;-86
2023/07/31 10:02:47;;;;;;;2.17;1.92;;;;;;;;;;4342559;32;382037;-85
2023/07/31 10:05:15;;;;;;;1.83;1.70;;;;;;;;;;4353314;32;317167;-88
2023/07/31 10:07:44;;;;;;;4.68;2.35;;;;;;;;;;4343917;32;317753;-85
2023/07/31 10:10:11;;;;;;;3.47;3.17;;;;;;;;;;4353669;32;316667;-82
2023/07/31 10:12:39;;;;;;;4.62;3.37;;;;;;;;;;4354977;32;316730;-82
2023/07/31 10:15:07;;;;;;;6.95;3.22;;;;;;;;;;4340625;32;416080;-84
2023/07/31 10:17:35;;;;;;;6.65;2.15;;;;;;;;;;4352841;32;335556;-85
2023/07/31 10:20:05;;;;;;;3.22;2.70;;;;;;;;;;4343506;32;317083;-83
2023/07/31 10:22:32;;;;;;;3.90;2.37;;;;;;;;;;4352096;32;317457;-84
2023/07/31 10:25:00;;;;;;;2.75;2.30;;;;;;;;;;4343910;32;317118;-84
2023/07/31 10:27:27;;;;;;;2.87;2.60;;;;;;;;;;4353461;32;316426;-85
2023/07/31 10:29:56;;;;;;;3.35;2.67;;;;;;;;;;4343545;32;317220;-84
2023/07/31 10:32:24;;;;;;;5.53;3.53;;;;;;;;;;4353707;32;317018;-84
2023/07/31 10:34:52;;;;;;;5.37;3.40;;;;;;;;;;4344653;32;316934;-84
2023/07/31 10:37:29;;;;;;;4.25;3.15;;;;;;;;;;4354191;32;317479;-85
2023/07/31 10:40:00;;;;;;;4.53;4.12;;;;;;;;;;4348827;32;317110;-83
2023/07/31 10:42:35;;;;;;;7.65;4.07;;;;;;;;;;4370187;32;316322;-84
2023/07/31 10:45:03;;;;;;;5.65;4.72;;;;;;;;;;4363183;32;316461;-83
2023/07/31 10:47:30;;;;;;;4.37;3.97;;;;;;;;;;4372630;32;316489;-84
2023/07/31 10:50:14;;;;;;;4.60;4.12;;;;;;;;;;4353459;32;316325;-86
2023/07/31 10:52:45;;;;;;;6.95;4.00;;;;;;;;;;4348296;32;316318;-85
2023/07/31 10:55:31;;;;;;;5.25;3.40;;;;;;;;;;4366287;32;317084;-82
2023/07/31 10:57:59;;;;;;;8.90;4.00;;;;;;;;;;4345812;32;316465;-82
2023/07/31 11:00:28;;;;;;;4.05;3.30;;;;;;;;;;4354183;32;317612;-83
2023/07/31 11:02:59;;;;;;;7.80;3.97;;;;;;;;;;4337277;32;317551;-85
2023/07/31 11:05:44;;;;;;;4.90;3.58;;;;;;;;;;4357403;32;317635;-83
2023/07/31 11:08:17;;;;;;;9.35;3.42;;;;;;;;;;4330527;32;417550;-82
2023/07/31 11:10:45;;;;;;;3.37;3.08;;;;;;;;;;4328265;32;316497;-83
2023/07/31 11:13:11;;;;;;;3.50;3.20;;;;;;;;;;4339147;32;317483;-81
2023/07/31 11:15:38;;;;;;;5.00;2.97;;;;;;;;;;4337998;32;316959;-82
2023/07/31 11:18:07;;;;;;;5.37;3.70;;;;;;;;;;4338255;32;416184;-82
2023/07/31 11:20:35;;;;;;;3.85;3.25;;;;;;;;;;4338640;32;317543;-82
2023/07/31 11:23:03;;;;;;;5.47;3.97;;;;;;;;;;4328843;32;316956;-82
2023/07/31 11:25:32;;;;;;;5.18;4.00;;;;;;;;;;4337690;32;316944;-83
2023/07/31 11:28:02;;;;;;;3.85;3.33;;;;;;;;;;4327911;32;317101;-82
2023/07/31 11:30:29;;;;;;;6.22;4.10;;;;;;;;;;4338998;32;317256;-80
2023/07/31 11:32:56;;;;;;;14.98;5.43;;;;;;;;;;4328792;32;317338;-84
2023/07/31 11:35:23;;;;;;;4.50;4.07;;;;;;;;;;4337995;32;318425;-83
2023/07/31 11:37:50;;;;;;;5.20;4.47;;;;;;;;;;4327830;32;317324;-83
2023/07/31 11:40:16;;;;;;;5.45;4.95;;;;;;;;;;4338710;32;317313;-82
2023/07/31 11:42:44;;;;;;;9.05;5.22;;;;;;;;;;4329041;32;317530;-81
2023/07/31 11:45:11;;;;;;;5.82;5.25;;;;;;;;;;4337849;32;316779;-82
2023/07/31 11:47:39;;;;;;;6.93;5.22;;;;;;;;;;4350800;32;317241;-81
2023/07/31 11:50:11;;;;;;;5.90;5.40;;;;;;;;;;4340471;32;417685;-83
2023/07/31 11:52:40;;;;;;;5.72;5.12;;;;;;;;;;4352154;32;316869;-82
2023/07/31 11:55:10;;;;;;;5.25;4.85;;;;;;;;;;4339499;32;418117;-91
2023/07/31 11:57:38;;;;;;;6.05;5.45;;;;;;;;;;4353497;32;316503;-81
2023/07/31 12:00:09;;;;;;;6.68;6.10;;;;;;;;;;4342623;32;317120;-80
2023/07/31 12:02:36;;;;;;;8.18;5.95;;;;;;;;;;4353305;32;317336;-84
2023/07/31 12:05:03;;;;;;;6.82;5.55;;;;;;;;;;4341504;32;317187;-82
2023/07/31 12:07:44;;;;;;;6.30;5.70;;;;;;;;;;4352078;32;316721;-82
2023/07/31 12:10:11;;;;;;;6.80;6.15;;;;;;;;;;4340582;32;416390;-83
2023/07/31 12:12:37;;;;;;;6.22;5.72;;;;;;;;;;4352271;32;317103;-82
2023/07/31 12:15:15;;;;;;;9.30;6.55;;;;;;;;;;4343261;32;317248;-81
2023/07/31 12:17:42;;;;;;;6.80;6.15;;;;;;;;;;4341882;32;316837;-82
2023/07/31 12:20:10;;;;;;;6.87;6.18;;;;;;;;;;4351620;32;317091;-82
2023/07/31 12:22:36;;;;;;;6.47;5.60;;;;;;;;;;4352416;32;344140;-89
2023/07/31 12:25:04;;;;;;;6.80;6.22;;;;;;;;;;4355717;32;317314;-82
2023/07/31 12:27:34;;;;;;;6.87;6.15;;;;;;;;;;4352979;32;317246;-89
2023/07/31 12:30:00;;;;;;;6.65;6.05;;;;;;;;;;4346455;32;339668;-91
2023/07/31 12:32:32;;;;;;;7.75;6.97;;;;;;;;;;4367842;32;317047;-83
2023/07/31 12:35:01;;;;;;;7.15;6.55;;;;;;;;;;4357588;32;317302;-81
2023/07/31 12:37:28;;;;;;;8.57;7.75;;;;;;;;;;4366552;32;316817;-81
2023/07/31 12:39:54;;;;;;;7.53;6.75;;;;;;;;;;4344840;32;316979;-83
2023/07/31 12:42:21;;;;;;;8.90;7.70;;;;;;;;;;4352624;32;317238;-80
2023/07/31 12:44:48;;;;;;;8.32;7.35;;;;;;;;;;4339483;32;317228;-81
2023/07/31 12:47:15;;;;;;;8.02;7.20;;;;;;;;;;4348377;32;316749;-81
2023/07/31 12:49:43;;;;;;;8.82;6.80;;;;;;;;;;4339379;32;317566;-82
2023/07/31 12:52:10;;;;;;;8.80;6.53;;;;;;;;;;4349282;32;317095;-81
2023/07/31 12:54:37;;;;;;;6.95;6.30;;;;;;;;;;4348145;32;317267;-81
2023/07/31 12:57:04;;;;;;;8.30;6.37;;;;;;;;;;4339790;32;318138;-81
2023/07/31 12:59:31;;;;;;;9.73;6.30;;;;;;;;;;4349957;32;316918;-81
2023/07/31 13:01:57;;;;;;;6.12;5.53;;;;;;;;;;4341034;32;316644;-84
2023/07/31 13:04:24;;;;;;;6.07;5.57;;;;;;;;;;4350218;32;316754;-82
2023/07/31 13:06:52;;;;;;;8.60;5.15;;;;;;;;;;4336368;32;319150;-81
2023/07/31 13:09:19;;;;;;;6.03;5.37;;;;;;;;;;4356800;32;317650;-82
2023/07/31 13:11:45;;;;;;;7.78;4.72;;;;;;;;;;4352621;32;328015;-82
2023/07/31 13:14:12;;;;;;;16.15;6.37;;;;;;;;;;4367178;32;317192;-82
2023/07/31 13:16:39;;;;;;;5.65;5.15;;;;;;;;;;4350901;32;318574;-82
2023/07/31 13:19:06;;;;;;;6.53;5.93;;;;;;;;;;4338577;32;416612;-81
2023/07/31 13:21:35;;;;;;;6.43;5.82;;;;;;;;;;4352872;32;316591;-82
2023/07/31 13:24:04;;;;;;;5.90;5.28;;;;;;;;;;4340148;32;317172;-82
2023/07/31 13:26:31;;;;;;;6.25;5.70;;;;;;;;;;4352025;32;317180;-81
2023/07/31 13:28:57;;;;;;;6.72;5.97;;;;;;;;;;4339889;32;317508;-82
2023/07/31 13:31:24;;;;;;;7.12;6.37;;;;;;;;;;4342376;32;316688;-82
2023/07/31 13:33:51;;;;;;;6.75;6.15;;;;;;;;;;4351778;32;316620;-82
2023/07/31 13:36:18;;;;;;;7.75;6.50;;;;;;;;;;4341956;32;317244;-82
2023/07/31 13:38:44;;;;;;;7.57;6.47;;;;;;;;;;4351984;32;316808;-81
2023/07/31 13:41:12;;;;;;;7.20;6.55;;;;;;;;;;4355061;32;315596;-81
2023/07/31 13:43:38;;;;;;;7.18;6.30;;;;;;;;;;4345222;32;316952;-82
2023/07/31 13:46:06;;;;;;;6.78;6.12;;;;;;;;;;4354777;32;317173;-82
2023/07/31 13:48:35;;;;;;;5.82;5.32;;;;;;;;;;4344577;32;317215;-82
2023/07/31 13:51:02;;;;;;;6.53;5.93;;;;;;;;;;4355063;32;316495;-81
2023/07/31 13:53:29;;;;;;;5.65;5.15;;;;;;;;;;4345201;32;317232;-82
2023/07/31 13:55:56;;;;;;;7.40;5.35;;;;;;;;;;4354053;32;317163;-82
2023/07/31 13:58:24;;;;;;;6.53;5.45;;;;;;;;;;4344092;32;318019;-82
2023/07/31 14:00:50;;;;;;;5.50;5.00;;;;;;;;;;4353209;32;316857;-82
2023/07/31 14:03:17;;;;;;;5.70;5.15;;;;;;;;;;4343739;32;330632;-83
2023/07/31 14:05:44;;;;;;;5.37;4.62;;;;;;;;;;4354920;32;317404;-82
2023/07/31 14:08:11;;;;;;;5.03;4.53;;;;;;;;;;4353683;32;317244;-81
2023/07/31 14:10:37;;;;;;;5.12;4.62;;;;;;;;;;4343833;32;317230;-82
2023/07/31 14:13:04;;;;;;;6.15;4.80;;;;;;;;;;4354810;32;316690;-82
2023/07/31 14:15:35;;;;;;;5.07;4.68;;;;;;;;;;4344825;32;317020;-82
2023/07/31 14:18:02;;;;;;;5.03;4.30;;;;;;;;;;4354026;32;317118;-82
2023/07/31 14:20:28;;;;;;;5.40;4.62;;;;;;;;;;4343830;32;317511;-82
2023/07/31 14:22:55;;;;;;;5.53;5.03;;;;;;;;;;4354005;32;326247;-82
2023/07/31 14:25:22;;;;;;;9.75;4.93;;;;;;;;;;4344741;32;316519;-82